sensor_id;sensor_type;location;lat;lon;timestamp;P1;durP1;ratioP1;P2;durP2;ratioP2
4391;SDS011;2210;51.938;8.488;2023-06-01T00:03:07;6.73;;;5.80;;
4391;SDS011;2210;51.938;8.488;2023-06-01T00:07:08;10.87;;;6.73;;
4391;SDS011;2210;51.938;8.488;2023-06-01T00:11:10;7.97;;;5.47;;
4391;SDS011;2210;51.938;8.488;2023-06-01T00:15:10;11.13;;;6.10;;
4391;SDS011;2210;51.938;8.488;2023-06-01T00:19:11;11.20;;;7.20;;
4391;SDS011;2210;51.938;8.488;2023-06-01T00:23:14;10.20;;;7.20;;
4391;SDS011;2210;51.938;8.488;2023-06-01T00:27:16;14.33;;;6.83;;
4391;SDS011;2210;51.938;8.488;2023-06-01T00:31:16;10.57;;;6.88;;
4391;SDS011;2210;51.938;8.488;2023-06-01T00:35:17;14.10;;;7.80;;
4391;SDS011;2210;51.938;8.488;2023-06-01T00:39:20;9.70;;;7.38;;
4391;SDS011;2210;51.938;8.488;2023-06-01T00:43:26;11.37;;;7.63;;
4391;SDS011;2210;51.938;8.488;2023-06-01T00:47:26;11.70;;;7.37;;
4391;SDS011;2210;51.938;8.488;2023-06-01T00:51:27;10.53;;;8.33;;
4391;SDS011;2210;51.938;8.488;2023-06-01T00:55:27;12.60;;;7.73;;
4391;SDS011;2210;51.938;8.488;2023-06-01T00:59:27;10.70;;;8.60;;
4391;SDS011;2210;51.938;8.488;2023-06-01T01:03:31;11.30;;;7.90;;
4391;SDS011;2210;51.938;8.488;2023-06-01T01:07:32;12.23;;;8.03;;
4391;SDS011;2210;51.938;8.488;2023-06-01T01:11:41;13.40;;;7.53;;
4391;SDS011;2210;51.938;8.488;2023-06-01T01:15:51;12.43;;;7.27;;
4391;SDS011;2210;51.938;8.488;2023-06-01T01:20:01;11.50;;;7.43;;
4391;SDS011;2210;51.938;8.488;2023-06-01T01:24:15;12.23;;;7.00;;
4391;SDS011;2210;51.938;8.488;2023-06-01T01:33:02;7.77;;;6.03;;
4391;SDS011;2210;51.938;8.488;2023-06-01T01:37:03;9.03;;;6.37;;
4391;SDS011;2210;51.938;8.488;2023-06-01T01:41:04;9.73;;;5.90;;
4391;SDS011;2210;51.938;8.488;2023-06-01T01:45:05;10.97;;;6.13;;
4391;SDS011;2210;51.938;8.488;2023-06-01T01:49:12;9.17;;;5.83;;
4391;SDS011;2210;51.938;8.488;2023-06-01T01:53:18;6.50;;;5.70;;
4391;SDS011;2210;51.938;8.488;2023-06-01T01:57:22;6.33;;;5.20;;
4391;SDS011;2210;51.938;8.488;2023-06-01T02:01:24;7.83;;;5.60;;
4391;SDS011;2210;51.938;8.488;2023-06-01T02:05:27;10.60;;;5.50;;
4391;SDS011;2210;51.938;8.488;2023-06-01T02:09:27;8.10;;;6.17;;
4391;SDS011;2210;51.938;8.488;2023-06-01T02:13:34;6.82;;;4.80;;
4391;SDS011;2210;51.938;8.488;2023-06-01T02:17:34;8.40;;;5.27;;
4391;SDS011;2210;51.938;8.488;2023-06-01T02:21:42;6.80;;;5.63;;
4391;SDS011;2210;51.938;8.488;2023-06-01T02:25:43;7.33;;;5.63;;
4391;SDS011;2210;51.938;8.488;2023-06-01T02:29:43;13.30;;;5.28;;
4391;SDS011;2210;51.938;8.488;2023-06-01T02:33:46;6.22;;;5.50;;
4391;SDS011;2210;51.938;8.488;2023-06-01T02:37:50;8.57;;;5.37;;
4391;SDS011;2210;51.938;8.488;2023-06-01T02:41:53;5.60;;;5.03;;
4391;SDS011;2210;51.938;8.488;2023-06-01T02:45:53;6.50;;;4.73;;
4391;SDS011;2210;51.938;8.488;2023-06-01T02:49:55;9.60;;;5.67;;
4391;SDS011;2210;51.938;8.488;2023-06-01T02:53:55;6.20;;;5.00;;
4391;SDS011;2210;51.938;8.488;2023-06-01T02:57:55;7.22;;;4.72;;
4391;SDS011;2210;51.938;8.488;2023-06-01T03:01:56;12.33;;;6.13;;
4391;SDS011;2210;51.938;8.488;2023-06-01T03:05:59;6.90;;;5.70;;
4391;SDS011;2210;51.938;8.488;2023-06-01T03:10:06;10.90;;;5.40;;
4391;SDS011;2210;51.938;8.488;2023-06-01T03:14:08;6.97;;;4.90;;
4391;SDS011;2210;51.938;8.488;2023-06-01T03:18:08;9.10;;;5.00;;
4391;SDS011;2210;51.938;8.488;2023-06-01T03:22:14;9.83;;;5.53;;
4391;SDS011;2210;51.938;8.488;2023-06-01T03:26:18;10.03;;;5.50;;
4391;SDS011;2210;51.938;8.488;2023-06-01T03:30:33;8.03;;;5.60;;
4391;SDS011;2210;51.938;8.488;2023-06-01T03:34:33;9.27;;;5.67;;
4391;SDS011;2210;51.938;8.488;2023-06-01T03:38:36;11.23;;;5.97;;
4391;SDS011;2210;51.938;8.488;2023-06-01T03:42:46;9.20;;;5.90;;
4391;SDS011;2210;51.938;8.488;2023-06-01T03:46:47;9.43;;;6.10;;
4391;SDS011;2210;51.938;8.488;2023-06-01T03:50:50;9.33;;;6.73;;
4391;SDS011;2210;51.938;8.488;2023-06-01T03:54:54;11.10;;;6.80;;
4391;SDS011;2210;51.938;8.488;2023-06-01T03:58:59;8.53;;;6.70;;
4391;SDS011;2210;51.938;8.488;2023-06-01T04:03:00;9.00;;;6.43;;
4391;SDS011;2210;51.938;8.488;2023-06-01T04:07:02;9.23;;;6.60;;
4391;SDS011;2210;51.938;8.488;2023-06-01T04:11:06;12.30;;;6.37;;
4391;SDS011;2210;51.938;8.488;2023-06-01T04:15:07;8.70;;;7.03;;
4391;SDS011;2210;51.938;8.488;2023-06-01T04:19:37;12.63;;;6.70;;
4391;SDS011;2210;51.938;8.488;2023-06-01T04:28:53;10.30;;;7.60;;
4391;SDS011;2210;51.938;8.488;2023-06-01T04:33:50;7.53;;;6.80;;
4391;SDS011;2210;51.938;8.488;2023-06-01T04:50:48;11.60;;;7.17;;
4391;SDS011;2210;51.938;8.488;2023-06-01T04:54:52;13.13;;;7.80;;
4391;SDS011;2210;51.938;8.488;2023-06-01T04:58:55;10.70;;;8.10;;
4391;SDS011;2210;51.938;8.488;2023-06-01T05:02:56;8.63;;;7.43;;
4391;SDS011;2210;51.938;8.488;2023-06-01T05:06:58;13.27;;;7.90;;
4391;SDS011;2210;51.938;8.488;2023-06-01T05:11:01;11.53;;;8.03;;
4391;SDS011;2210;51.938;8.488;2023-06-01T05:15:03;8.53;;;7.63;;
4391;SDS011;2210;51.938;8.488;2023-06-01T05:19:08;11.60;;;8.37;;
4391;SDS011;2210;51.938;8.488;2023-06-01T05:23:08;12.53;;;8.10;;
4391;SDS011;2210;51.938;8.488;2023-06-01T05:27:11;9.63;;;7.55;;
4391;SDS011;2210;51.938;8.488;2023-06-01T05:31:17;12.47;;;8.90;;
4391;SDS011;2210;51.938;8.488;2023-06-01T05:35:19;13.97;;;8.47;;
4391;SDS011;2210;51.938;8.488;2023-06-01T05:39:23;10.57;;;8.10;;
4391;SDS011;2210;51.938;8.488;2023-06-01T05:43:27;14.07;;;8.50;;
4391;SDS011;2210;51.938;8.488;2023-06-01T05:47:27;14.93;;;8.00;;
4391;SDS011;2210;51.938;8.488;2023-06-01T05:51:30;9.50;;;8.50;;
4391;SDS011;2210;51.938;8.488;2023-06-01T05:55:34;10.67;;;8.17;;
4391;SDS011;2210;51.938;8.488;2023-06-01T05:59:37;13.97;;;8.50;;
4391;SDS011;2210;51.938;8.488;2023-06-01T06:03:37;15.17;;;8.77;;
4391;SDS011;2210;51.938;8.488;2023-06-01T06:07:38;11.77;;;8.40;;
4391;SDS011;2210;51.938;8.488;2023-06-01T06:11:45;15.60;;;8.33;;
4391;SDS011;2210;51.938;8.488;2023-06-01T06:15:45;9.73;;;8.40;;
4391;SDS011;2210;51.938;8.488;2023-06-01T06:19:45;11.93;;;8.80;;
4391;SDS011;2210;51.938;8.488;2023-06-01T06:23:50;14.27;;;9.37;;
4391;SDS011;2210;51.938;8.488;2023-06-01T06:27:50;14.00;;;9.87;;
4391;SDS011;2210;51.938;8.488;2023-06-01T06:31:51;10.40;;;9.07;;
4391;SDS011;2210;51.938;8.488;2023-06-01T06:35:51;11.07;;;9.20;;
4391;SDS011;2210;51.938;8.488;2023-06-01T06:39:54;15.70;;;9.47;;
4391;SDS011;2210;51.938;8.488;2023-06-01T06:43:54;14.07;;;9.20;;
4391;SDS011;2210;51.938;8.488;2023-06-01T06:47:55;18.67;;;9.17;;
4391;SDS011;2210;51.938;8.488;2023-06-01T06:51:55;14.30;;;8.77;;
4391;SDS011;2210;51.938;8.488;2023-06-01T06:55:59;12.53;;;8.47;;
4391;SDS011;2210;51.938;8.488;2023-06-01T07:00:02;12.37;;;8.63;;
4391;SDS011;2210;51.938;8.488;2023-06-01T07:04:09;9.53;;;7.83;;
4391;SDS011;2210;51.938;8.488;2023-06-01T07:08:09;11.30;;;8.53;;
4391;SDS011;2210;51.938;8.488;2023-06-01T07:12:10;10.30;;;8.57;;
4391;SDS011;2210;51.938;8.488;2023-06-01T07:16:13;12.80;;;8.60;;
4391;SDS011;2210;51.938;8.488;2023-06-01T07:20:14;13.60;;;7.93;;
4391;SDS011;2210;51.938;8.488;2023-06-01T07:24:17;13.17;;;8.37;;
4391;SDS011;2210;51.938;8.488;2023-06-01T07:28:24;11.23;;;8.00;;
4391;SDS011;2210;51.938;8.488;2023-06-01T07:32:26;12.57;;;8.00;;
4391;SDS011;2210;51.938;8.488;2023-06-01T07:36:27;14.30;;;8.50;;
4391;SDS011;2210;51.938;8.488;2023-06-01T07:40:30;9.35;;;7.53;;
4391;SDS011;2210;51.938;8.488;2023-06-01T07:44:30;9.93;;;7.83;;
4391;SDS011;2210;51.938;8.488;2023-06-01T07:48:31;11.23;;;6.40;;
4391;SDS011;2210;51.938;8.488;2023-06-01T07:52:36;11.10;;;8.00;;
4391;SDS011;2210;51.938;8.488;2023-06-01T07:56:39;15.80;;;8.73;;
4391;SDS011;2210;51.938;8.488;2023-06-01T08:00:40;13.80;;;8.10;;
4391;SDS011;2210;51.938;8.488;2023-06-01T08:04:49;21.17;;;9.07;;
4391;SDS011;2210;51.938;8.488;2023-06-01T08:08:51;14.57;;;9.53;;
4391;SDS011;2210;51.938;8.488;2023-06-01T08:12:54;15.93;;;9.13;;
4391;SDS011;2210;51.938;8.488;2023-06-01T08:17:00;11.13;;;8.70;;
4391;SDS011;2210;51.938;8.488;2023-06-01T08:21:01;10.90;;;8.97;;
4391;SDS011;2210;51.938;8.488;2023-06-01T08:25:05;12.77;;;8.50;;
4391;SDS011;2210;51.938;8.488;2023-06-01T08:29:05;18.80;;;9.47;;
4391;SDS011;2210;51.938;8.488;2023-06-01T08:33:06;16.43;;;8.80;;
4391;SDS011;2210;51.938;8.488;2023-06-01T08:37:12;12.37;;;8.50;;
4391;SDS011;2210;51.938;8.488;2023-06-01T08:41:36;14.20;;;8.83;;
4391;SDS011;2210;51.938;8.488;2023-06-01T08:45:40;12.30;;;7.83;;
4391;SDS011;2210;51.938;8.488;2023-06-01T08:49:44;12.10;;;8.40;;
4391;SDS011;2210;51.938;8.488;2023-06-01T08:53:48;11.60;;;7.33;;
4391;SDS011;2210;51.938;8.488;2023-06-01T08:57:53;10.70;;;7.30;;
4391;SDS011;2210;51.938;8.488;2023-06-01T09:01:54;14.47;;;8.20;;
4391;SDS011;2210;51.938;8.488;2023-06-01T09:05:56;11.43;;;7.30;;
4391;SDS011;2210;51.938;8.488;2023-06-01T09:09:59;12.17;;;8.00;;
4391;SDS011;2210;51.938;8.488;2023-06-01T09:14:20;15.20;;;7.67;;
4391;SDS011;2210;51.938;8.488;2023-06-01T09:18:24;12.93;;;8.13;;
4391;SDS011;2210;51.938;8.488;2023-06-01T09:22:24;11.33;;;6.87;;
4391;SDS011;2210;51.938;8.488;2023-06-01T09:26:38;15.57;;;7.80;;
4391;SDS011;2210;51.938;8.488;2023-06-01T09:30:39;10.50;;;6.63;;
4391;SDS011;2210;51.938;8.488;2023-06-01T09:34:44;9.47;;;5.83;;
4391;SDS011;2210;51.938;8.488;2023-06-01T09:38:45;9.20;;;5.97;;
4391;SDS011;2210;51.938;8.488;2023-06-01T09:42:46;7.17;;;5.37;;
4391;SDS011;2210;51.938;8.488;2023-06-01T09:46:50;7.93;;;6.10;;
4391;SDS011;2210;51.938;8.488;2023-06-01T09:51:22;9.77;;;5.97;;
4391;SDS011;2210;51.938;8.488;2023-06-01T09:55:26;19.53;;;6.50;;
4391;SDS011;2210;51.938;8.488;2023-06-01T09:59:27;8.03;;;5.30;;
4391;SDS011;2210;51.938;8.488;2023-06-01T10:03:28;7.67;;;6.20;;
4391;SDS011;2210;51.938;8.488;2023-06-01T10:07:35;15.93;;;6.73;;
4391;SDS011;2210;51.938;8.488;2023-06-01T10:11:38;12.83;;;5.97;;
4391;SDS011;2210;51.938;8.488;2023-06-01T10:15:41;11.10;;;6.80;;
4391;SDS011;2210;51.938;8.488;2023-06-01T10:19:45;6.90;;;6.00;;
4391;SDS011;2210;51.938;8.488;2023-06-01T10:23:46;10.03;;;6.73;;
4391;SDS011;2210;51.938;8.488;2023-06-01T10:27:52;12.83;;;7.10;;
4391;SDS011;2210;51.938;8.488;2023-06-01T10:31:57;9.07;;;6.07;;
4391;SDS011;2210;51.938;8.488;2023-06-01T10:36:01;8.10;;;6.00;;
4391;SDS011;2210;51.938;8.488;2023-06-01T10:40:20;10.50;;;6.93;;
4391;SDS011;2210;51.938;8.488;2023-06-01T10:48:53;6.27;;;5.10;;
4391;SDS011;2210;51.938;8.488;2023-06-01T10:52:55;11.50;;;5.47;;
4391;SDS011;2210;51.938;8.488;2023-06-01T10:57:17;5.70;;;4.53;;
4391;SDS011;2210;51.938;8.488;2023-06-01T11:01:24;8.23;;;4.53;;
4391;SDS011;2210;51.938;8.488;2023-06-01T11:09:53;6.00;;;5.40;;
4391;SDS011;2210;51.938;8.488;2023-06-01T11:14:12;8.10;;;4.90;;
4391;SDS011;2210;51.938;8.488;2023-06-01T11:22:44;10.23;;;4.90;;
4391;SDS011;2210;51.938;8.488;2023-06-01T11:26:47;8.07;;;5.07;;
4391;SDS011;2210;51.938;8.488;2023-06-01T11:30:49;9.43;;;5.23;;
4391;SDS011;2210;51.938;8.488;2023-06-01T11:34:50;6.87;;;5.80;;
4391;SDS011;2210;51.938;8.488;2023-06-01T11:38:51;6.10;;;5.27;;
4391;SDS011;2210;51.938;8.488;2023-06-01T11:42:53;6.50;;;5.57;;
4391;SDS011;2210;51.938;8.488;2023-06-01T11:46:54;7.93;;;5.00;;
4391;SDS011;2210;51.938;8.488;2023-06-01T11:50:56;6.07;;;4.20;;
4391;SDS011;2210;51.938;8.488;2023-06-01T11:55:02;6.80;;;4.43;;
4391;SDS011;2210;51.938;8.488;2023-06-01T11:59:06;5.60;;;4.77;;
4391;SDS011;2210;51.938;8.488;2023-06-01T12:03:11;5.07;;;4.00;;
4391;SDS011;2210;51.938;8.488;2023-06-01T12:07:11;4.57;;;4.03;;
4391;SDS011;2210;51.938;8.488;2023-06-01T12:11:11;5.70;;;4.40;;
4391;SDS011;2210;51.938;8.488;2023-06-01T12:15:15;5.57;;;4.33;;
4391;SDS011;2210;51.938;8.488;2023-06-01T12:19:16;5.50;;;4.50;;
4391;SDS011;2210;51.938;8.488;2023-06-01T12:23:17;5.90;;;4.60;;
4391;SDS011;2210;51.938;8.488;2023-06-01T12:27:22;6.93;;;5.07;;
4391;SDS011;2210;51.938;8.488;2023-06-01T12:31:22;6.60;;;4.53;;
4391;SDS011;2210;51.938;8.488;2023-06-01T12:35:23;12.73;;;5.20;;
4391;SDS011;2210;51.938;8.488;2023-06-01T12:39:33;5.53;;;5.03;;
4391;SDS011;2210;51.938;8.488;2023-06-01T12:43:37;5.30;;;4.73;;
4391;SDS011;2210;51.938;8.488;2023-06-01T12:47:46;8.90;;;5.43;;
4391;SDS011;2210;51.938;8.488;2023-06-01T12:51:46;11.57;;;5.20;;
4391;SDS011;2210;51.938;8.488;2023-06-01T12:55:47;7.30;;;4.80;;
4391;SDS011;2210;51.938;8.488;2023-06-01T12:59:50;6.27;;;4.83;;
4391;SDS011;2210;51.938;8.488;2023-06-01T13:03:50;6.37;;;5.20;;
4391;SDS011;2210;51.938;8.488;2023-06-01T13:07:52;6.17;;;5.00;;
4391;SDS011;2210;51.938;8.488;2023-06-01T13:11:54;6.13;;;5.50;;
4391;SDS011;2210;51.938;8.488;2023-06-01T13:15:54;5.60;;;4.90;;
4391;SDS011;2210;51.938;8.488;2023-06-01T13:19:57;8.43;;;6.47;;
4391;SDS011;2210;51.938;8.488;2023-06-01T13:23:58;8.03;;;6.83;;
4391;SDS011;2210;51.938;8.488;2023-06-01T13:27:58;6.33;;;5.07;;
4391;SDS011;2210;51.938;8.488;2023-06-01T13:31:59;6.00;;;5.40;;
4391;SDS011;2210;51.938;8.488;2023-06-01T13:35:59;5.80;;;5.20;;
4391;SDS011;2210;51.938;8.488;2023-06-01T13:40:00;5.10;;;4.60;;
4391;SDS011;2210;51.938;8.488;2023-06-01T13:44:03;4.50;;;4.07;;
4391;SDS011;2210;51.938;8.488;2023-06-01T13:48:03;9.57;;;4.87;;
4391;SDS011;2210;51.938;8.488;2023-06-01T13:52:04;7.37;;;5.10;;
4391;SDS011;2210;51.938;8.488;2023-06-01T13:56:04;8.73;;;4.97;;
4391;SDS011;2210;51.938;8.488;2023-06-01T14:00:08;6.77;;;5.40;;
4391;SDS011;2210;51.938;8.488;2023-06-01T14:04:15;5.70;;;5.20;;
4391;SDS011;2210;51.938;8.488;2023-06-01T14:08:15;9.40;;;5.43;;
4391;SDS011;2210;51.938;8.488;2023-06-01T14:12:15;6.27;;;5.23;;
4391;SDS011;2210;51.938;8.488;2023-06-01T14:16:19;5.60;;;5.10;;
4391;SDS011;2210;51.938;8.488;2023-06-01T14:20:19;6.03;;;5.53;;
4391;SDS011;2210;51.938;8.488;2023-06-01T14:24:29;6.67;;;5.57;;
4391;SDS011;2210;51.938;8.488;2023-06-01T14:28:33;6.27;;;5.40;;
4391;SDS011;2210;51.938;8.488;2023-06-01T14:32:33;8.37;;;5.07;;
4391;SDS011;2210;51.938;8.488;2023-06-01T14:36:37;9.40;;;5.00;;
4391;SDS011;2210;51.938;8.488;2023-06-01T14:40:37;5.70;;;3.90;;
4391;SDS011;2210;51.938;8.488;2023-06-01T14:44:37;5.10;;;4.20;;
4391;SDS011;2210;51.938;8.488;2023-06-01T14:48:37;6.40;;;3.70;;
4391;SDS011;2210;51.938;8.488;2023-06-01T14:52:38;6.72;;;3.72;;
4391;SDS011;2210;51.938;8.488;2023-06-01T14:56:38;3.83;;;3.53;;
4391;SDS011;2210;51.938;8.488;2023-06-01T15:00:38;3.30;;;3.07;;
4391;SDS011;2210;51.938;8.488;2023-06-01T15:04:39;3.37;;;3.07;;
4391;SDS011;2210;51.938;8.488;2023-06-01T15:08:39;3.00;;;2.70;;
4391;SDS011;2210;51.938;8.488;2023-06-01T15:12:43;3.33;;;2.70;;
4391;SDS011;2210;51.938;8.488;2023-06-01T15:16:43;3.70;;;2.90;;
4391;SDS011;2210;51.938;8.488;2023-06-01T15:20:52;3.30;;;2.60;;
4391;SDS011;2210;51.938;8.488;2023-06-01T15:24:53;3.93;;;2.50;;
4391;SDS011;2210;51.938;8.488;2023-06-01T15:28:53;7.70;;;2.20;;
4391;SDS011;2210;51.938;8.488;2023-06-01T15:32:53;4.10;;;2.50;;
4391;SDS011;2210;51.938;8.488;2023-06-01T15:36:54;3.20;;;2.90;;
4391;SDS011;2210;51.938;8.488;2023-06-01T15:40:57;2.77;;;2.57;;
4391;SDS011;2210;51.938;8.488;2023-06-01T15:44:57;3.00;;;2.80;;
4391;SDS011;2210;51.938;8.488;2023-06-01T15:49:01;2.78;;;2.50;;
4391;SDS011;2210;51.938;8.488;2023-06-01T15:53:01;3.00;;;2.80;;
4391;SDS011;2210;51.938;8.488;2023-06-01T15:57:07;3.07;;;2.87;;
4391;SDS011;2210;51.938;8.488;2023-06-01T16:01:08;4.97;;;3.07;;
4391;SDS011;2210;51.938;8.488;2023-06-01T16:05:08;3.67;;;3.33;;
4391;SDS011;2210;51.938;8.488;2023-06-01T16:09:12;3.33;;;3.03;;
4391;SDS011;2210;51.938;8.488;2023-06-01T16:13:15;2.77;;;2.57;;
4391;SDS011;2210;51.938;8.488;2023-06-01T16:17:16;3.53;;;2.97;;
4391;SDS011;2210;51.938;8.488;2023-06-01T16:21:16;3.97;;;3.10;;
4391;SDS011;2210;51.938;8.488;2023-06-01T16:25:16;4.55;;;3.33;;
4391;SDS011;2210;51.938;8.488;2023-06-01T16:29:22;3.87;;;3.10;;
4391;SDS011;2210;51.938;8.488;2023-06-01T16:33:23;10.93;;;3.40;;
4391;SDS011;2210;51.938;8.488;2023-06-01T16:37:29;4.70;;;3.40;;
4391;SDS011;2210;51.938;8.488;2023-06-01T16:41:36;4.67;;;3.13;;
4391;SDS011;2210;51.938;8.488;2023-06-01T16:45:37;4.70;;;3.43;;
4391;SDS011;2210;51.938;8.488;2023-06-01T16:49:37;3.88;;;3.53;;
4391;SDS011;2210;51.938;8.488;2023-06-01T16:53:40;3.70;;;2.87;;
4391;SDS011;2210;51.938;8.488;2023-06-01T16:57:40;5.53;;;3.30;;
4391;SDS011;2210;51.938;8.488;2023-06-01T17:01:41;6.80;;;3.57;;
4391;SDS011;2210;51.938;8.488;2023-06-01T17:05:41;6.17;;;3.70;;
4391;SDS011;2210;51.938;8.488;2023-06-01T17:09:41;4.35;;;3.90;;
4391;SDS011;2210;51.938;8.488;2023-06-01T17:13:41;4.30;;;3.73;;
4391;SDS011;2210;51.938;8.488;2023-06-01T17:17:42;4.63;;;3.27;;
4391;SDS011;2210;51.938;8.488;2023-06-01T17:21:42;6.28;;;3.53;;
4391;SDS011;2210;51.938;8.488;2023-06-01T17:25:42;8.90;;;4.10;;
4391;SDS011;2210;51.938;8.488;2023-06-01T17:29:43;7.20;;;3.90;;
4391;SDS011;2210;51.938;8.488;2023-06-01T17:33:43;11.05;;;3.65;;
4391;SDS011;2210;51.938;8.488;2023-06-01T17:37:43;4.28;;;3.28;;
4391;SDS011;2210;51.938;8.488;2023-06-01T17:41:43;3.90;;;3.03;;
4391;SDS011;2210;51.938;8.488;2023-06-01T17:45:44;6.20;;;3.33;;
4391;SDS011;2210;51.938;8.488;2023-06-01T17:49:47;4.90;;;3.17;;
4391;SDS011;2210;51.938;8.488;2023-06-01T17:53:47;5.87;;;3.00;;
4391;SDS011;2210;51.938;8.488;2023-06-01T17:57:54;5.38;;;3.20;;
4391;SDS011;2210;51.938;8.488;2023-06-01T18:01:57;6.07;;;3.67;;
4391;SDS011;2210;51.938;8.488;2023-06-01T18:05:57;6.03;;;3.90;;
4391;SDS011;2210;51.938;8.488;2023-06-01T18:09:58;4.77;;;3.20;;
4391;SDS011;2210;51.938;8.488;2023-06-01T18:13:58;7.15;;;3.20;;
4391;SDS011;2210;51.938;8.488;2023-06-01T18:18:00;7.30;;;3.17;;
4391;SDS011;2210;51.938;8.488;2023-06-01T18:22:03;5.82;;;3.03;;
4391;SDS011;2210;51.938;8.488;2023-06-01T18:26:04;7.03;;;3.00;;
4391;SDS011;2210;51.938;8.488;2023-06-01T18:30:04;8.10;;;3.40;;
4391;SDS011;2210;51.938;8.488;2023-06-01T18:34:05;10.67;;;2.77;;
4391;SDS011;2210;51.938;8.488;2023-06-01T18:38:05;10.13;;;3.27;;
4391;SDS011;2210;51.938;8.488;2023-06-01T18:42:15;8.50;;;3.20;;
4391;SDS011;2210;51.938;8.488;2023-06-01T18:46:18;8.73;;;3.40;;
4391;SDS011;2210;51.938;8.488;2023-06-01T18:50:19;5.20;;;3.30;;
4391;SDS011;2210;51.938;8.488;2023-06-01T18:54:20;7.30;;;3.07;;
4391;SDS011;2210;51.938;8.488;2023-06-01T18:58:29;8.50;;;3.20;;
4391;SDS011;2210;51.938;8.488;2023-06-01T19:02:30;8.20;;;3.20;;
4391;SDS011;2210;51.938;8.488;2023-06-01T19:06:33;10.03;;;3.57;;
4391;SDS011;2210;51.938;8.488;2023-06-01T19:15:08;5.67;;;3.37;;
4391;SDS011;2210;51.938;8.488;2023-06-01T19:19:15;3.33;;;3.00;;
4391;SDS011;2210;51.938;8.488;2023-06-01T19:23:22;6.43;;;3.33;;
4391;SDS011;2210;51.938;8.488;2023-06-01T19:27:23;6.38;;;3.25;;
4391;SDS011;2210;51.938;8.488;2023-06-01T19:31:24;4.50;;;2.90;;
4391;SDS011;2210;51.938;8.488;2023-06-01T19:35:25;3.03;;;2.73;;
4391;SDS011;2210;51.938;8.488;2023-06-01T19:39:29;11.83;;;3.10;;
4391;SDS011;2210;51.938;8.488;2023-06-01T19:43:40;6.77;;;3.63;;
4391;SDS011;2210;51.938;8.488;2023-06-01T19:47:48;4.50;;;2.50;;
4391;SDS011;2210;51.938;8.488;2023-06-01T19:51:51;5.93;;;3.50;;
4391;SDS011;2210;51.938;8.488;2023-06-01T19:55:51;5.87;;;3.73;;
4391;SDS011;2210;51.938;8.488;2023-06-01T19:59:55;5.80;;;3.20;;
4391;SDS011;2210;51.938;8.488;2023-06-01T20:03:55;7.17;;;3.53;;
4391;SDS011;2210;51.938;8.488;2023-06-01T20:07:57;7.00;;;3.50;;
4391;SDS011;2210;51.938;8.488;2023-06-01T20:11:58;10.07;;;3.20;;
4391;SDS011;2210;51.938;8.488;2023-06-01T20:15:59;7.13;;;2.83;;
4391;SDS011;2210;51.938;8.488;2023-06-01T20:19:59;5.70;;;3.22;;
4391;SDS011;2210;51.938;8.488;2023-06-01T20:23:59;4.47;;;2.70;;
4391;SDS011;2210;51.938;8.488;2023-06-01T20:28:03;4.72;;;2.90;;
4391;SDS011;2210;51.938;8.488;2023-06-01T20:32:07;5.20;;;3.33;;
4391;SDS011;2210;51.938;8.488;2023-06-01T20:36:14;5.30;;;2.77;;
4391;SDS011;2210;51.938;8.488;2023-06-01T20:41:04;5.77;;;2.73;;
4391;SDS011;2210;51.938;8.488;2023-06-01T20:44:50;7.03;;;2.77;;
4391;SDS011;2210;51.938;8.488;2023-06-01T20:48:51;3.97;;;2.57;;
4391;SDS011;2210;51.938;8.488;2023-06-01T20:53:01;7.93;;;2.77;;
4391;SDS011;2210;51.938;8.488;2023-06-01T20:57:01;4.10;;;2.77;;
4391;SDS011;2210;51.938;8.488;2023-06-01T21:01:08;6.63;;;2.50;;
4391;SDS011;2210;51.938;8.488;2023-06-01T21:05:18;4.20;;;2.50;;
4391;SDS011;2210;51.938;8.488;2023-06-01T21:09:18;3.63;;;2.73;;
4391;SDS011;2210;51.938;8.488;2023-06-01T21:13:21;3.97;;;2.37;;
4391;SDS011;2210;51.938;8.488;2023-06-01T21:17:21;4.70;;;2.15;;
4391;SDS011;2210;51.938;8.488;2023-06-01T21:21:21;4.40;;;2.63;;
4391;SDS011;2210;51.938;8.488;2023-06-01T21:25:22;4.17;;;2.73;;
4391;SDS011;2210;51.938;8.488;2023-06-01T21:29:22;3.83;;;2.00;;
4391;SDS011;2210;51.938;8.488;2023-06-01T21:33:22;4.23;;;2.43;;
4391;SDS011;2210;51.938;8.488;2023-06-01T21:37:23;5.20;;;1.90;;
4391;SDS011;2210;51.938;8.488;2023-06-01T21:41:23;4.27;;;2.20;;
4391;SDS011;2210;51.938;8.488;2023-06-01T21:45:23;4.32;;;1.83;;
4391;SDS011;2210;51.938;8.488;2023-06-01T21:49:23;3.88;;;1.70;;
4391;SDS011;2210;51.938;8.488;2023-06-01T21:53:24;3.77;;;2.43;;
4391;SDS011;2210;51.938;8.488;2023-06-01T21:57:28;3.97;;;1.97;;
4391;SDS011;2210;51.938;8.488;2023-06-01T22:01:31;5.17;;;2.10;;
4391;SDS011;2210;51.938;8.488;2023-06-01T22:05:32;5.40;;;2.13;;
4391;SDS011;2210;51.938;8.488;2023-06-01T22:09:34;7.13;;;2.30;;
4391;SDS011;2210;51.938;8.488;2023-06-01T22:13:35;6.43;;;2.30;;
4391;SDS011;2210;51.938;8.488;2023-06-01T22:17:35;4.82;;;2.13;;
4391;SDS011;2210;51.938;8.488;2023-06-01T22:21:36;4.60;;;2.03;;
4391;SDS011;2210;51.938;8.488;2023-06-01T22:25:40;5.03;;;1.90;;
4391;SDS011;2210;51.938;8.488;2023-06-01T22:29:41;5.80;;;2.03;;
4391;SDS011;2210;51.938;8.488;2023-06-01T22:33:50;3.40;;;1.83;;
4391;SDS011;2210;51.938;8.488;2023-06-01T22:37:50;2.07;;;1.87;;
4391;SDS011;2210;51.938;8.488;2023-06-01T22:41:54;3.00;;;2.27;;
4391;SDS011;2210;51.938;8.488;2023-06-01T22:45:57;7.53;;;2.50;;
4391;SDS011;2210;51.938;8.488;2023-06-01T22:49:57;7.90;;;2.37;;
4391;SDS011;2210;51.938;8.488;2023-06-01T22:54:07;5.27;;;2.03;;
4391;SDS011;2210;51.938;8.488;2023-06-01T22:58:08;8.53;;;2.30;;
4391;SDS011;2210;51.938;8.488;2023-06-01T23:02:10;6.90;;;2.43;;
4391;SDS011;2210;51.938;8.488;2023-06-01T23:06:10;5.40;;;2.45;;
4391;SDS011;2210;51.938;8.488;2023-06-01T23:10:10;7.37;;;2.70;;
4391;SDS011;2210;51.938;8.488;2023-06-01T23:14:11;10.30;;;3.00;;
4391;SDS011;2210;51.938;8.488;2023-06-01T23:18:12;8.60;;;2.27;;
4391;SDS011;2210;51.938;8.488;2023-06-01T23:22:15;7.30;;;2.37;;
4391;SDS011;2210;51.938;8.488;2023-06-01T23:30:39;6.90;;;2.63;;
4391;SDS011;2210;51.938;8.488;2023-06-01T23:34:39;4.30;;;2.27;;
4391;SDS011;2210;51.938;8.488;2023-06-01T23:38:39;6.65;;;2.42;;
4391;SDS011;2210;51.938;8.488;2023-06-01T23:42:42;8.10;;;2.50;;
4391;SDS011;2210;51.938;8.488;2023-06-01T23:46:44;9.03;;;2.67;;
4391;SDS011;2210;51.938;8.488;2023-06-01T23:50:45;8.20;;;2.70;;
4391;SDS011;2210;51.938;8.488;2023-06-01T23:54:48;8.10;;;2.55;;
4391;SDS011;2210;51.938;8.488;2023-06-01T23:58:48;8.27;;;2.73;;
